sensor_id;sensor_type;location;lat;lon;timestamp;P1;durP1;ratioP1;P2;durP2;ratioP2
43118;SDS011;28729;49.838;8.650;2023-08-17T00:00:24;0.13;;;0.13;;
43118;SDS011;28729;49.838;8.650;2023-08-17T00:04:26;0.10;;;0.10;;
43118;SDS011;28729;49.838;8.650;2023-08-17T00:08:28;0.10;;;0.10;;
43118;SDS011;28729;49.838;8.650;2023-08-17T00:12:30;0.13;;;0.13;;
43118;SDS011;28729;49.838;8.650;2023-08-17T00:16:32;0.10;;;0.10;;
43118;SDS011;28729;49.838;8.650;2023-08-17T00:20:33;0.10;;;0.10;;
43118;SDS011;28729;49.838;8.650;2023-08-17T00:24:35;0.13;;;0.13;;
43118;SDS011;28729;49.838;8.650;2023-08-17T00:28:37;0.10;;;0.10;;
43118;SDS011;28729;49.838;8.650;2023-08-17T00:32:39;0.10;;;0.10;;
43118;SDS011;28729;49.838;8.650;2023-08-17T00:36:41;0.10;;;0.10;;
43118;SDS011;28729;49.838;8.650;2023-08-17T00:40:43;0.30;;;0.30;;
43118;SDS011;28729;49.838;8.650;2023-08-17T00:44:45;0.00;;;0.00;;
43118;SDS011;28729;49.838;8.650;2023-08-17T00:48:46;0.38;;;0.38;;
43118;SDS011;28729;49.838;8.650;2023-08-17T00:52:48;0.10;;;0.10;;
43118;SDS011;28729;49.838;8.650;2023-08-17T00:56:50;0.10;;;0.10;;
43118;SDS011;28729;49.838;8.650;2023-08-17T01:00:54;0.10;;;0.10;;
43118;SDS011;28729;49.838;8.650;2023-08-17T01:04:58;0.10;;;0.10;;
43118;SDS011;28729;49.838;8.650;2023-08-17T01:09:00;0.13;;;0.13;;
43118;SDS011;28729;49.838;8.650;2023-08-17T01:13:09;0.20;;;0.20;;
43118;SDS011;28729;49.838;8.650;2023-08-17T01:17:22;0.10;;;0.10;;
43118;SDS011;28729;49.838;8.650;2023-08-17T01:21:32;0.47;;;0.47;;
43118;SDS011;28729;49.838;8.650;2023-08-17T01:25:41;0.10;;;0.10;;
43118;SDS011;28729;49.838;8.650;2023-08-17T01:29:43;0.05;;;0.05;;
43118;SDS011;28729;49.838;8.650;2023-08-17T01:33:49;0.00;;;0.00;;
43118;SDS011;28729;49.838;8.650;2023-08-17T01:37:59;0.10;;;0.10;;
43118;SDS011;28729;49.838;8.650;2023-08-17T01:42:05;0.10;;;0.10;;
43118;SDS011;28729;49.838;8.650;2023-08-17T01:46:08;0.10;;;0.10;;
43118;SDS011;28729;49.838;8.650;2023-08-17T01:50:10;0.10;;;0.10;;
43118;SDS011;28729;49.838;8.650;2023-08-17T01:54:12;1.58;;;0.45;;
43118;SDS011;28729;49.838;8.650;2023-08-17T01:58:13;0.10;;;0.10;;
43118;SDS011;28729;49.838;8.650;2023-08-17T02:02:15;0.10;;;0.10;;
43118;SDS011;28729;49.838;8.650;2023-08-17T02:06:18;0.15;;;0.15;;
43118;SDS011;28729;49.838;8.650;2023-08-17T02:10:20;0.28;;;0.28;;
43118;SDS011;28729;49.838;8.650;2023-08-17T02:14:22;0.60;;;0.40;;
43118;SDS011;28729;49.838;8.650;2023-08-17T02:18:24;0.10;;;0.10;;
43118;SDS011;28729;49.838;8.650;2023-08-17T02:22:26;0.20;;;0.20;;
43118;SDS011;28729;49.838;8.650;2023-08-17T02:30:31;0.10;;;0.10;;
43118;SDS011;28729;49.838;8.650;2023-08-17T02:34:33;0.10;;;0.10;;
43118;SDS011;28729;49.838;8.650;2023-08-17T02:38:34;0.35;;;0.35;;
43118;SDS011;28729;49.838;8.650;2023-08-17T02:42:36;0.30;;;0.30;;
43118;SDS011;28729;49.838;8.650;2023-08-17T02:46:38;0.10;;;0.10;;
43118;SDS011;28729;49.838;8.650;2023-08-17T02:50:40;0.10;;;0.10;;
43118;SDS011;28729;49.838;8.650;2023-08-17T02:54:41;0.25;;;0.25;;
43118;SDS011;28729;49.838;8.650;2023-08-17T02:58:44;0.10;;;0.10;;
43118;SDS011;28729;49.838;8.650;2023-08-17T03:02:45;0.20;;;0.20;;
43118;SDS011;28729;49.838;8.650;2023-08-17T03:06:47;0.10;;;0.10;;
43118;SDS011;28729;49.838;8.650;2023-08-17T03:10:49;0.10;;;0.10;;
43118;SDS011;28729;49.838;8.650;2023-08-17T03:14:52;0.10;;;0.10;;
43118;SDS011;28729;49.838;8.650;2023-08-17T03:18:54;0.10;;;0.10;;
43118;SDS011;28729;49.838;8.650;2023-08-17T03:22:57;0.10;;;0.10;;
43118;SDS011;28729;49.838;8.650;2023-08-17T03:26:58;0.10;;;0.10;;
43118;SDS011;28729;49.838;8.650;2023-08-17T03:31:01;0.10;;;0.10;;
43118;SDS011;28729;49.838;8.650;2023-08-17T03:35:04;0.10;;;0.10;;
43118;SDS011;28729;49.838;8.650;2023-08-17T03:39:06;0.10;;;0.10;;
43118;SDS011;28729;49.838;8.650;2023-08-17T03:43:08;0.10;;;0.10;;
43118;SDS011;28729;49.838;8.650;2023-08-17T03:47:11;0.10;;;0.10;;
43118;SDS011;28729;49.838;8.650;2023-08-17T03:51:13;0.20;;;0.20;;
43118;SDS011;28729;49.838;8.650;2023-08-17T03:55:15;0.25;;;0.25;;
43118;SDS011;28729;49.838;8.650;2023-08-17T03:59:16;0.30;;;0.30;;
43118;SDS011;28729;49.838;8.650;2023-08-17T04:03:18;0.20;;;0.20;;
43118;SDS011;28729;49.838;8.650;2023-08-17T04:07:21;0.10;;;0.10;;
43118;SDS011;28729;49.838;8.650;2023-08-17T04:11:27;0.20;;;0.20;;
43118;SDS011;28729;49.838;8.650;2023-08-17T04:15:29;0.10;;;0.10;;
43118;SDS011;28729;49.838;8.650;2023-08-17T04:19:31;0.10;;;0.10;;
43118;SDS011;28729;49.838;8.650;2023-08-17T04:23:33;0.10;;;0.10;;
43118;SDS011;28729;49.838;8.650;2023-08-17T04:27:35;0.20;;;0.20;;
43118;SDS011;28729;49.838;8.650;2023-08-17T04:31:37;0.10;;;0.10;;
43118;SDS011;28729;49.838;8.650;2023-08-17T04:35:39;0.00;;;0.00;;
43118;SDS011;28729;49.838;8.650;2023-08-17T04:39:41;0.33;;;0.33;;
43118;SDS011;28729;49.838;8.650;2023-08-17T04:43:50;0.10;;;0.10;;
43118;SDS011;28729;49.838;8.650;2023-08-17T04:47:52;0.25;;;0.25;;
43118;SDS011;28729;49.838;8.650;2023-08-17T04:51:54;0.10;;;0.10;;
43118;SDS011;28729;49.838;8.650;2023-08-17T04:55:56;0.10;;;0.10;;
43118;SDS011;28729;49.838;8.650;2023-08-17T04:59:57;0.43;;;0.43;;
43118;SDS011;28729;49.838;8.650;2023-08-17T05:04:00;1.93;;;0.20;;
43118;SDS011;28729;49.838;8.650;2023-08-17T05:08:01;0.10;;;0.10;;
43118;SDS011;28729;49.838;8.650;2023-08-17T05:12:04;0.10;;;0.10;;
43118;SDS011;28729;49.838;8.650;2023-08-17T05:16:06;0.22;;;0.22;;
43118;SDS011;28729;49.838;8.650;2023-08-17T05:20:09;0.10;;;0.10;;
43118;SDS011;28729;49.838;8.650;2023-08-17T05:24:11;0.10;;;0.10;;
43118;SDS011;28729;49.838;8.650;2023-08-17T05:28:15;0.20;;;0.20;;
43118;SDS011;28729;49.838;8.650;2023-08-17T05:32:16;0.10;;;0.10;;
43118;SDS011;28729;49.838;8.650;2023-08-17T05:36:18;0.10;;;0.10;;
43118;SDS011;28729;49.838;8.650;2023-08-17T05:40:21;0.20;;;0.20;;
43118;SDS011;28729;49.838;8.650;2023-08-17T05:44:22;2.50;;;1.45;;
43118;SDS011;28729;49.838;8.650;2023-08-17T05:48:24;0.40;;;0.40;;
43118;SDS011;28729;49.838;8.650;2023-08-17T05:52:26;0.20;;;0.20;;
43118;SDS011;28729;49.838;8.650;2023-08-17T05:56:28;0.10;;;0.10;;
43118;SDS011;28729;49.838;8.650;2023-08-17T06:00:30;1.00;;;0.38;;
43118;SDS011;28729;49.838;8.650;2023-08-17T06:04:32;0.10;;;0.10;;
43118;SDS011;28729;49.838;8.650;2023-08-17T06:08:34;0.10;;;0.10;;
43118;SDS011;28729;49.838;8.650;2023-08-17T06:12:36;0.10;;;0.10;;
43118;SDS011;28729;49.838;8.650;2023-08-17T06:16:37;0.35;;;0.30;;
43118;SDS011;28729;49.838;8.650;2023-08-17T06:20:39;0.10;;;0.10;;
43118;SDS011;28729;49.838;8.650;2023-08-17T06:24:41;0.20;;;0.20;;
43118;SDS011;28729;49.838;8.650;2023-08-17T06:28:43;0.22;;;0.22;;
43118;SDS011;28729;49.838;8.650;2023-08-17T06:32:45;0.20;;;0.20;;
43118;SDS011;28729;49.838;8.650;2023-08-17T06:36:56;0.50;;;0.47;;
43118;SDS011;28729;49.838;8.650;2023-08-17T06:41:00;0.20;;;0.20;;
43118;SDS011;28729;49.838;8.650;2023-08-17T06:45:02;0.20;;;0.20;;
43118;SDS011;28729;49.838;8.650;2023-08-17T06:49:04;0.30;;;0.30;;
43118;SDS011;28729;49.838;8.650;2023-08-17T06:53:06;0.10;;;0.10;;
43118;SDS011;28729;49.838;8.650;2023-08-17T06:57:08;0.10;;;0.10;;
43118;SDS011;28729;49.838;8.650;2023-08-17T07:01:10;0.50;;;0.47;;
43118;SDS011;28729;49.838;8.650;2023-08-17T07:05:12;4.50;;;0.57;;
43118;SDS011;28729;49.838;8.650;2023-08-17T07:09:14;0.10;;;0.10;;
43118;SDS011;28729;49.838;8.650;2023-08-17T07:13:16;0.10;;;0.10;;
43118;SDS011;28729;49.838;8.650;2023-08-17T07:17:18;0.30;;;0.30;;
43118;SDS011;28729;49.838;8.650;2023-08-17T07:21:20;0.63;;;0.53;;
43118;SDS011;28729;49.838;8.650;2023-08-17T07:25:22;0.57;;;0.40;;
43118;SDS011;28729;49.838;8.650;2023-08-17T07:29:24;0.20;;;0.20;;
43118;SDS011;28729;49.838;8.650;2023-08-17T07:33:26;0.17;;;0.07;;
43118;SDS011;28729;49.838;8.650;2023-08-17T07:37:27;0.27;;;0.27;;
43118;SDS011;28729;49.838;8.650;2023-08-17T07:41:35;0.30;;;0.30;;
43118;SDS011;28729;49.838;8.650;2023-08-17T07:45:36;0.27;;;0.27;;
43118;SDS011;28729;49.838;8.650;2023-08-17T07:49:38;0.38;;;0.20;;
43118;SDS011;28729;49.838;8.650;2023-08-17T07:53:40;0.10;;;0.10;;
43118;SDS011;28729;49.838;8.650;2023-08-17T07:57:42;0.30;;;0.30;;
43118;SDS011;28729;49.838;8.650;2023-08-17T08:01:44;0.10;;;0.10;;
43118;SDS011;28729;49.838;8.650;2023-08-17T08:05:46;1.10;;;1.00;;
43118;SDS011;28729;49.838;8.650;2023-08-17T08:09:48;0.20;;;0.20;;
43118;SDS011;28729;49.838;8.650;2023-08-17T08:13:50;3.97;;;0.38;;
43118;SDS011;28729;49.838;8.650;2023-08-17T08:17:52;0.47;;;0.47;;
43118;SDS011;28729;49.838;8.650;2023-08-17T08:21:54;0.40;;;0.40;;
43118;SDS011;28729;49.838;8.650;2023-08-17T08:25:55;0.20;;;0.20;;
43118;SDS011;28729;49.838;8.650;2023-08-17T08:29:59;0.90;;;0.88;;
43118;SDS011;28729;49.838;8.650;2023-08-17T08:34:01;0.20;;;0.20;;
43118;SDS011;28729;49.838;8.650;2023-08-17T08:38:03;0.47;;;0.30;;
43118;SDS011;28729;49.838;8.650;2023-08-17T08:42:05;1.90;;;0.77;;
43118;SDS011;28729;49.838;8.650;2023-08-17T08:46:06;0.90;;;0.73;;
43118;SDS011;28729;49.838;8.650;2023-08-17T08:50:09;0.22;;;0.22;;
43118;SDS011;28729;49.838;8.650;2023-08-17T08:54:20;0.82;;;0.82;;
43118;SDS011;28729;49.838;8.650;2023-08-17T08:58:24;0.20;;;0.20;;
43118;SDS011;28729;49.838;8.650;2023-08-17T09:02:27;0.32;;;0.32;;
43118;SDS011;28729;49.838;8.650;2023-08-17T09:06:29;0.17;;;0.17;;
43118;SDS011;28729;49.838;8.650;2023-08-17T09:10:46;0.63;;;0.63;;
43118;SDS011;28729;49.838;8.650;2023-08-17T09:14:48;0.20;;;0.20;;
43118;SDS011;28729;49.838;8.650;2023-08-17T09:18:52;1.75;;;1.45;;
43118;SDS011;28729;49.838;8.650;2023-08-17T09:22:55;0.28;;;0.28;;
43118;SDS011;28729;49.838;8.650;2023-08-17T09:26:59;0.30;;;0.30;;
43118;SDS011;28729;49.838;8.650;2023-08-17T09:31:02;0.17;;;0.17;;
43118;SDS011;28729;49.838;8.650;2023-08-17T09:35:07;0.30;;;0.30;;
43118;SDS011;28729;49.838;8.650;2023-08-17T09:39:09;1.45;;;0.70;;
43118;SDS011;28729;49.838;8.650;2023-08-17T09:43:15;2.28;;;0.35;;
43118;SDS011;28729;49.838;8.650;2023-08-17T09:47:19;0.20;;;0.20;;
43118;SDS011;28729;49.838;8.650;2023-08-17T09:51:23;1.98;;;0.88;;
43118;SDS011;28729;49.838;8.650;2023-08-17T09:55:26;0.52;;;0.30;;
43118;SDS011;28729;49.838;8.650;2023-08-17T10:00:05;0.73;;;0.73;;
43118;SDS011;28729;49.838;8.650;2023-08-17T10:04:25;0.30;;;0.30;;
43118;SDS011;28729;49.838;8.650;2023-08-17T10:08:42;1.13;;;1.13;;
43118;SDS011;28729;49.838;8.650;2023-08-17T10:12:53;0.20;;;0.20;;
43118;SDS011;28729;49.838;8.650;2023-08-17T10:17:09;0.40;;;0.40;;
43118;SDS011;28729;49.838;8.650;2023-08-17T10:26:03;0.40;;;0.40;;
43118;SDS011;28729;49.838;8.650;2023-08-17T10:30:11;0.25;;;0.25;;
43118;SDS011;28729;49.838;8.650;2023-08-17T10:34:14;0.47;;;0.47;;
43118;SDS011;28729;49.838;8.650;2023-08-17T10:38:21;0.63;;;0.60;;
43118;SDS011;28729;49.838;8.650;2023-08-17T10:46:37;0.40;;;0.40;;
43118;SDS011;28729;49.838;8.650;2023-08-17T10:55:17;1.33;;;1.05;;
43118;SDS011;28729;49.838;8.650;2023-08-17T11:04:20;0.52;;;0.52;;
43118;SDS011;28729;49.838;8.650;2023-08-17T11:08:30;0.40;;;0.40;;
43118;SDS011;28729;49.838;8.650;2023-08-17T11:12:40;2.55;;;1.33;;
43118;SDS011;28729;49.838;8.650;2023-08-17T11:17:12;0.75;;;0.63;;
43118;SDS011;28729;49.838;8.650;2023-08-17T11:21:40;0.55;;;0.50;;
43118;SDS011;28729;49.838;8.650;2023-08-17T11:26:26;0.85;;;0.52;;
43118;SDS011;28729;49.838;8.650;2023-08-17T11:31:09;0.10;;;0.10;;
43118;SDS011;28729;49.838;8.650;2023-08-17T11:35:43;0.25;;;0.25;;
43118;SDS011;28729;49.838;8.650;2023-08-17T11:44:00;0.45;;;0.43;;
43118;SDS011;28729;49.838;8.650;2023-08-17T11:48:13;1.00;;;0.90;;
43118;SDS011;28729;49.838;8.650;2023-08-17T11:52:40;0.80;;;0.80;;
43118;SDS011;28729;49.838;8.650;2023-08-17T12:11:47;1.13;;;0.75;;
43118;SDS011;28729;49.838;8.650;2023-08-17T12:16:47;0.40;;;0.40;;
43118;SDS011;28729;49.838;8.650;2023-08-17T12:21:03;0.20;;;0.20;;
43118;SDS011;28729;49.838;8.650;2023-08-17T12:25:52;0.38;;;0.38;;
43118;SDS011;28729;49.838;8.650;2023-08-17T12:29:55;8.35;;;1.45;;
43118;SDS011;28729;49.838;8.650;2023-08-17T12:37:59;0.52;;;0.45;;
43118;SDS011;28729;49.838;8.650;2023-08-17T12:42:00;0.43;;;0.43;;
43118;SDS011;28729;49.838;8.650;2023-08-17T12:46:03;0.70;;;0.70;;
43118;SDS011;28729;49.838;8.650;2023-08-17T12:50:05;0.57;;;0.57;;
43118;SDS011;28729;49.838;8.650;2023-08-17T12:54:07;0.35;;;0.35;;
43118;SDS011;28729;49.838;8.650;2023-08-17T12:58:09;1.02;;;0.73;;
43118;SDS011;28729;49.838;8.650;2023-08-17T13:02:11;0.60;;;0.60;;
43118;SDS011;28729;49.838;8.650;2023-08-17T13:06:14;0.32;;;0.32;;
43118;SDS011;28729;49.838;8.650;2023-08-17T13:10:15;0.65;;;0.65;;
43118;SDS011;28729;49.838;8.650;2023-08-17T13:14:17;1.13;;;1.02;;
43118;SDS011;28729;49.838;8.650;2023-08-17T13:18:19;0.52;;;0.52;;
43118;SDS011;28729;49.838;8.650;2023-08-17T13:22:21;0.68;;;0.68;;
43118;SDS011;28729;49.838;8.650;2023-08-17T13:30:25;0.55;;;0.22;;
43118;SDS011;28729;49.838;8.650;2023-08-17T13:38:28;0.52;;;0.45;;
43118;SDS011;28729;49.838;8.650;2023-08-17T13:42:30;0.65;;;0.63;;
43118;SDS011;28729;49.838;8.650;2023-08-17T13:50:36;4.47;;;3.70;;
43118;SDS011;28729;49.838;8.650;2023-08-17T13:54:39;10.50;;;7.18;;
43118;SDS011;28729;49.838;8.650;2023-08-17T13:58:41;9.85;;;4.07;;
43118;SDS011;28729;49.838;8.650;2023-08-17T14:02:43;4.78;;;3.80;;
43118;SDS011;28729;49.838;8.650;2023-08-17T14:06:45;9.30;;;3.50;;
43118;SDS011;28729;49.838;8.650;2023-08-17T14:10:47;5.93;;;3.75;;
43118;SDS011;28729;49.838;8.650;2023-08-17T14:14:48;4.18;;;3.50;;
43118;SDS011;28729;49.838;8.650;2023-08-17T14:18:51;5.65;;;4.00;;
43118;SDS011;28729;49.838;8.650;2023-08-17T14:22:52;4.35;;;3.22;;
43118;SDS011;28729;49.838;8.650;2023-08-17T14:26:54;3.53;;;2.83;;
43118;SDS011;28729;49.838;8.650;2023-08-17T14:30:58;6.50;;;3.95;;
43118;SDS011;28729;49.838;8.650;2023-08-17T14:34:59;4.28;;;3.42;;
43118;SDS011;28729;49.838;8.650;2023-08-17T14:39:01;7.57;;;3.38;;
43118;SDS011;28729;49.838;8.650;2023-08-17T14:43:03;5.30;;;3.35;;
43118;SDS011;28729;49.838;8.650;2023-08-17T14:47:05;3.40;;;2.90;;
43118;SDS011;28729;49.838;8.650;2023-08-17T14:55:08;5.18;;;2.90;;
43118;SDS011;28729;49.838;8.650;2023-08-17T15:03:12;3.90;;;3.15;;
43118;SDS011;28729;49.838;8.650;2023-08-17T15:07:14;3.92;;;3.10;;
43118;SDS011;28729;49.838;8.650;2023-08-17T15:11:15;5.80;;;3.55;;
43118;SDS011;28729;49.838;8.650;2023-08-17T15:15:17;5.10;;;3.22;;
43118;SDS011;28729;49.838;8.650;2023-08-17T15:19:21;4.57;;;3.40;;
43118;SDS011;28729;49.838;8.650;2023-08-17T15:23:40;7.25;;;4.15;;
43118;SDS011;28729;49.838;8.650;2023-08-17T15:27:42;4.63;;;3.28;;
43118;SDS011;28729;49.838;8.650;2023-08-17T15:31:44;5.75;;;3.17;;
43118;SDS011;28729;49.838;8.650;2023-08-17T15:35:46;4.53;;;3.13;;
43118;SDS011;28729;49.838;8.650;2023-08-17T15:43:49;7.07;;;3.10;;
43118;SDS011;28729;49.838;8.650;2023-08-17T15:47:51;4.40;;;3.13;;
43118;SDS011;28729;49.838;8.650;2023-08-17T15:51:53;4.50;;;3.00;;
43118;SDS011;28729;49.838;8.650;2023-08-17T15:55:54;8.18;;;4.40;;
43118;SDS011;28729;49.838;8.650;2023-08-17T15:59:56;5.90;;;3.00;;
43118;SDS011;28729;49.838;8.650;2023-08-17T16:03:58;7.18;;;3.40;;
43118;SDS011;28729;49.838;8.650;2023-08-17T16:12:02;5.13;;;2.40;;
43118;SDS011;28729;49.838;8.650;2023-08-17T16:16:03;4.18;;;2.67;;
43118;SDS011;28729;49.838;8.650;2023-08-17T16:20:09;10.82;;;3.15;;
43118;SDS011;28729;49.838;8.650;2023-08-17T16:24:12;6.35;;;3.50;;
43118;SDS011;28729;49.838;8.650;2023-08-17T16:32:15;4.60;;;2.80;;
43118;SDS011;28729;49.838;8.650;2023-08-17T16:36:17;5.07;;;2.60;;
43118;SDS011;28729;49.838;8.650;2023-08-17T16:40:19;7.18;;;3.15;;
43118;SDS011;28729;49.838;8.650;2023-08-17T16:44:37;5.50;;;3.30;;
43118;SDS011;28729;49.838;8.650;2023-08-17T16:48:39;5.72;;;2.70;;
43118;SDS011;28729;49.838;8.650;2023-08-17T16:52:40;4.03;;;2.47;;
43118;SDS011;28729;49.838;8.650;2023-08-17T16:56:42;4.07;;;2.88;;
43118;SDS011;28729;49.838;8.650;2023-08-17T17:00:45;3.50;;;2.35;;
43118;SDS011;28729;49.838;8.650;2023-08-17T17:04:46;3.20;;;2.60;;
43118;SDS011;28729;49.838;8.650;2023-08-17T17:08:48;4.00;;;3.20;;
43118;SDS011;28729;49.838;8.650;2023-08-17T17:12:50;4.55;;;2.30;;
43118;SDS011;28729;49.838;8.650;2023-08-17T17:16:51;3.00;;;2.28;;
43118;SDS011;28729;49.838;8.650;2023-08-17T17:20:53;4.88;;;2.50;;
43118;SDS011;28729;49.838;8.650;2023-08-17T17:28:57;3.77;;;2.67;;
43118;SDS011;28729;49.838;8.650;2023-08-17T17:32:59;4.47;;;2.45;;
43118;SDS011;28729;49.838;8.650;2023-08-17T17:37:01;6.47;;;2.90;;
43118;SDS011;28729;49.838;8.650;2023-08-17T17:41:04;3.33;;;2.47;;
43118;SDS011;28729;49.838;8.650;2023-08-17T17:45:06;8.77;;;2.38;;
43118;SDS011;28729;49.838;8.650;2023-08-17T17:53:10;5.45;;;2.72;;
43118;SDS011;28729;49.838;8.650;2023-08-17T17:57:12;10.25;;;2.95;;
43118;SDS011;28729;49.838;8.650;2023-08-17T18:01:13;4.97;;;3.03;;
43118;SDS011;28729;49.838;8.650;2023-08-17T18:05:15;5.07;;;2.42;;
43118;SDS011;28729;49.838;8.650;2023-08-17T18:09:17;6.13;;;2.50;;
43118;SDS011;28729;49.838;8.650;2023-08-17T18:13:21;5.68;;;2.70;;
43118;SDS011;28729;49.838;8.650;2023-08-17T18:17:23;4.97;;;2.53;;
43118;SDS011;28729;49.838;8.650;2023-08-17T18:21:25;5.30;;;2.67;;
43118;SDS011;28729;49.838;8.650;2023-08-17T18:25:31;13.02;;;3.17;;
43118;SDS011;28729;49.838;8.650;2023-08-17T18:29:33;9.52;;;2.70;;
43118;SDS011;28729;49.838;8.650;2023-08-17T18:33:35;10.02;;;2.75;;
43118;SDS011;28729;49.838;8.650;2023-08-17T18:37:37;9.07;;;2.78;;
43118;SDS011;28729;49.838;8.650;2023-08-17T18:41:39;8.77;;;2.83;;
43118;SDS011;28729;49.838;8.650;2023-08-17T18:45:41;7.72;;;2.80;;
43118;SDS011;28729;49.838;8.650;2023-08-17T18:49:43;6.50;;;2.80;;
43118;SDS011;28729;49.838;8.650;2023-08-17T18:53:44;8.70;;;3.23;;
43118;SDS011;28729;49.838;8.650;2023-08-17T18:57:47;9.43;;;3.25;;
43118;SDS011;28729;49.838;8.650;2023-08-17T19:01:50;7.07;;;3.20;;
43118;SDS011;28729;49.838;8.650;2023-08-17T19:05:52;6.63;;;3.00;;
43118;SDS011;28729;49.838;8.650;2023-08-17T19:09:54;9.80;;;3.63;;
43118;SDS011;28729;49.838;8.650;2023-08-17T19:13:56;7.57;;;3.43;;
43118;SDS011;28729;49.838;8.650;2023-08-17T19:17:58;10.03;;;3.93;;
43118;SDS011;28729;49.838;8.650;2023-08-17T19:22:00;11.45;;;3.95;;
43118;SDS011;28729;49.838;8.650;2023-08-17T19:26:02;5.95;;;2.95;;
43118;SDS011;28729;49.838;8.650;2023-08-17T19:30:04;9.20;;;3.27;;
43118;SDS011;28729;49.838;8.650;2023-08-17T19:34:07;13.65;;;3.58;;
43118;SDS011;28729;49.838;8.650;2023-08-17T19:38:09;4.93;;;2.75;;
43118;SDS011;28729;49.838;8.650;2023-08-17T19:42:11;9.77;;;3.40;;
43118;SDS011;28729;49.838;8.650;2023-08-17T19:46:13;9.83;;;2.90;;
43118;SDS011;28729;49.838;8.650;2023-08-17T19:50:15;6.60;;;3.33;;
43118;SDS011;28729;49.838;8.650;2023-08-17T19:58:19;4.40;;;3.03;;
43118;SDS011;28729;49.838;8.650;2023-08-17T20:02:21;8.37;;;3.50;;
43118;SDS011;28729;49.838;8.650;2023-08-17T20:06:23;12.75;;;3.53;;
43118;SDS011;28729;49.838;8.650;2023-08-17T20:10:25;5.40;;;2.60;;
43118;SDS011;28729;49.838;8.650;2023-08-17T20:14:26;11.03;;;3.03;;
43118;SDS011;28729;49.838;8.650;2023-08-17T20:18:28;5.43;;;2.67;;
43118;SDS011;28729;49.838;8.650;2023-08-17T20:22:30;3.87;;;2.70;;
43118;SDS011;28729;49.838;8.650;2023-08-17T20:26:32;8.33;;;2.97;;
43118;SDS011;28729;49.838;8.650;2023-08-17T20:30:33;8.10;;;2.97;;
43118;SDS011;28729;49.838;8.650;2023-08-17T20:34:36;5.70;;;3.13;;
43118;SDS011;28729;49.838;8.650;2023-08-17T20:42:39;6.32;;;2.90;;
43118;SDS011;28729;49.838;8.650;2023-08-17T20:46:41;5.67;;;3.53;;
43118;SDS011;28729;49.838;8.650;2023-08-17T20:50:45;6.45;;;2.92;;
43118;SDS011;28729;49.838;8.650;2023-08-17T20:54:48;5.65;;;3.22;;
43118;SDS011;28729;49.838;8.650;2023-08-17T20:58:50;9.13;;;3.53;;
43118;SDS011;28729;49.838;8.650;2023-08-17T21:02:51;7.63;;;3.63;;
43118;SDS011;28729;49.838;8.650;2023-08-17T21:06:53;7.73;;;3.20;;
43118;SDS011;28729;49.838;8.650;2023-08-17T21:10:55;4.27;;;3.03;;
43118;SDS011;28729;49.838;8.650;2023-08-17T21:14:56;6.40;;;3.00;;
43118;SDS011;28729;49.838;8.650;2023-08-17T21:18:59;12.15;;;3.40;;
43118;SDS011;28729;49.838;8.650;2023-08-17T21:23:01;8.35;;;4.18;;
43118;SDS011;28729;49.838;8.650;2023-08-17T21:27:03;6.70;;;2.97;;
43118;SDS011;28729;49.838;8.650;2023-08-17T21:31:06;9.38;;;3.25;;
43118;SDS011;28729;49.838;8.650;2023-08-17T21:35:07;6.70;;;3.90;;
43118;SDS011;28729;49.838;8.650;2023-08-17T21:39:10;7.32;;;3.20;;
43118;SDS011;28729;49.838;8.650;2023-08-17T21:43:13;6.50;;;3.22;;
43118;SDS011;28729;49.838;8.650;2023-08-17T21:47:15;11.67;;;3.87;;
43118;SDS011;28729;49.838;8.650;2023-08-17T21:51:17;10.60;;;3.50;;
43118;SDS011;28729;49.838;8.650;2023-08-17T21:55:19;7.70;;;3.47;;
43118;SDS011;28729;49.838;8.650;2023-08-17T21:59:20;14.10;;;3.17;;
43118;SDS011;28729;49.838;8.650;2023-08-17T22:03:22;7.50;;;3.67;;
43118;SDS011;28729;49.838;8.650;2023-08-17T22:07:24;7.73;;;3.93;;
43118;SDS011;28729;49.838;8.650;2023-08-17T22:11:26;10.30;;;4.20;;
43118;SDS011;28729;49.838;8.650;2023-08-17T22:15:28;10.17;;;3.93;;
43118;SDS011;28729;49.838;8.650;2023-08-17T22:19:30;10.57;;;3.90;;
43118;SDS011;28729;49.838;8.650;2023-08-17T22:23:31;5.47;;;4.03;;
43118;SDS011;28729;49.838;8.650;2023-08-17T22:27:33;11.43;;;5.63;;
43118;SDS011;28729;49.838;8.650;2023-08-17T22:31:35;6.97;;;3.87;;
43118;SDS011;28729;49.838;8.650;2023-08-17T22:35:37;12.33;;;4.23;;
43118;SDS011;28729;49.838;8.650;2023-08-17T22:39:38;11.30;;;4.17;;
43118;SDS011;28729;49.838;8.650;2023-08-17T22:43:40;8.43;;;4.53;;
43118;SDS011;28729;49.838;8.650;2023-08-17T22:47:42;8.80;;;4.77;;
43118;SDS011;28729;49.838;8.650;2023-08-17T22:51:43;9.00;;;5.63;;
43118;SDS011;28729;49.838;8.650;2023-08-17T22:55:45;9.77;;;5.27;;
43118;SDS011;28729;49.838;8.650;2023-08-17T22:59:47;7.80;;;5.05;;
43118;SDS011;28729;49.838;8.650;2023-08-17T23:03:49;9.38;;;4.82;;
43118;SDS011;28729;49.838;8.650;2023-08-17T23:07:51;13.00;;;5.30;;
43118;SDS011;28729;49.838;8.650;2023-08-17T23:11:53;14.68;;;6.28;;
43118;SDS011;28729;49.838;8.650;2023-08-17T23:15:55;8.50;;;5.60;;
43118;SDS011;28729;49.838;8.650;2023-08-17T23:19:56;7.63;;;5.27;;
43118;SDS011;28729;49.838;8.650;2023-08-17T23:23:58;10.77;;;5.20;;
43118;SDS011;28729;49.838;8.650;2023-08-17T23:28:00;14.03;;;5.93;;
43118;SDS011;28729;49.838;8.650;2023-08-17T23:32:02;10.73;;;5.93;;
43118;SDS011;28729;49.838;8.650;2023-08-17T23:36:25;14.18;;;6.18;;
43118;SDS011;28729;49.838;8.650;2023-08-17T23:40:27;8.10;;;5.28;;
43118;SDS011;28729;49.838;8.650;2023-08-17T23:44:29;11.30;;;6.35;;
43118;SDS011;28729;49.838;8.650;2023-08-17T23:48:31;7.30;;;5.60;;
43118;SDS011;28729;49.838;8.650;2023-08-17T23:52:32;10.70;;;5.60;;
43118;SDS011;28729;49.838;8.650;2023-08-17T23:56:34;14.40;;;6.40;;
